Brainerd Lakes Regional Airport Brainerd US
ICAO: KBRD
IATA: BRD
Category: Medium
Scheduled Services: Yes

Elevation: 1232 ft
TransAlt. 18000 ft.

Airport Communications:
ASOS:126.775
MINNEAPOLIS CNTR:118.05
PRINCETON RDO:123.65
CTAF/UNICOM:122.7

KBRD Zoom In..

If Map Doesn't Load, Click Here

Runways:

(A) RW 05 length 6512 ft width 150 ft
---- / hdg 51

(B) RW 16 length 7100 ft width 150 ft
---- / hdg 160

(C) RW 23 length 6512 ft width 150 ft
ILS 109.90 / hdg 231

(D) RW 34 length 7100 ft width 150 ft
ILS 109.70 / hdg 340

Location; KBRD
Day. 24 / Time. 05.53 Zulu
* Altimeter: 29.91
* Temperature: 13° c. 55.4°f.
* Wind from: 090° Speed 04 kn.
Dewpoint: 10° c.
Visibility: 10 Statute Miles.
Clouds: Clear (automated report).

KBRD 240553Z AUTO 09004KT 10SM CLR 13/10 A2991 RMK AO2 SLP133 T01280100 10133 20111 401390083 56009


Wind From 090°
Speed 04 kn.

 
 
jpsmedia.com for Web Design worldairports.se 2018   terms of use